sensor_id;sensor_type;location;lat;lon;timestamp;pressure;altitude;pressure_sealevel;temperature;humidity
11971;BME280;6045;42.682;23.294;2023-07-20T00:02:22;94321.47;;;24.55;64.13
11971;BME280;6045;42.682;23.294;2023-07-20T00:04:48;94324.19;;;24.55;61.78
11971;BME280;6045;42.682;23.294;2023-07-20T00:07:18;94323.56;;;24.40;61.45
11971;BME280;6045;42.682;23.294;2023-07-20T00:09:46;94322.81;;;24.40;62.65
11971;BME280;6045;42.682;23.294;2023-07-20T00:12:13;94320.84;;;24.49;63.43
11971;BME280;6045;42.682;23.294;2023-07-20T00:14:40;94327.56;;;24.60;63.41
11971;BME280;6045;42.682;23.294;2023-07-20T00:17:07;94334.97;;;24.68;64.52
11971;BME280;6045;42.682;23.294;2023-07-20T00:19:34;94331.44;;;24.76;64.66
11971;BME280;6045;42.682;23.294;2023-07-20T00:22:00;94334.13;;;24.85;64.82
11971;BME280;6045;42.682;23.294;2023-07-20T00:24:30;94335.44;;;24.79;63.48
11971;BME280;6045;42.682;23.294;2023-07-20T00:26:59;94331.59;;;24.80;62.86
11971;BME280;6045;42.682;23.294;2023-07-20T00:29:26;94337.84;;;24.80;62.40
11971;BME280;6045;42.682;23.294;2023-07-20T00:31:53;94344.75;;;24.86;63.26
11971;BME280;6045;42.682;23.294;2023-07-20T00:34:20;94340.56;;;24.89;62.72
11971;BME280;6045;42.682;23.294;2023-07-20T00:36:46;94348.09;;;24.92;60.97
11971;BME280;6045;42.682;23.294;2023-07-20T00:39:14;94342.63;;;24.92;61.29
11971;BME280;6045;42.682;23.294;2023-07-20T00:41:41;94328.19;;;24.91;60.43
11971;BME280;6045;42.682;23.294;2023-07-20T00:44:09;94336.06;;;24.93;60.94
11971;BME280;6045;42.682;23.294;2023-07-20T00:46:35;94332.84;;;24.91;61.09
11971;BME280;6045;42.682;23.294;2023-07-20T00:49:02;94320.75;;;24.92;61.93
11971;BME280;6045;42.682;23.294;2023-07-20T00:51:29;94322.03;;;24.94;63.02
11971;BME280;6045;42.682;23.294;2023-07-20T00:53:56;94329.47;;;24.94;63.82
11971;BME280;6045;42.682;23.294;2023-07-20T00:56:23;94319.34;;;24.86;64.51
11971;BME280;6045;42.682;23.294;2023-07-20T00:58:51;94312.28;;;24.76;64.14
11971;BME280;6045;42.682;23.294;2023-07-20T01:01:20;94309.41;;;24.64;63.74
11971;BME280;6045;42.682;23.294;2023-07-20T01:03:46;94312.00;;;24.61;63.81
11971;BME280;6045;42.682;23.294;2023-07-20T01:06:24;94310.69;;;24.67;63.98
11971;BME280;6045;42.682;23.294;2023-07-20T01:09:00;94320.66;;;24.63;64.29
11971;BME280;6045;42.682;23.294;2023-07-20T01:11:36;94328.06;;;24.54;63.72
11971;BME280;6045;42.682;23.294;2023-07-20T01:14:04;94331.13;;;24.52;63.97
11971;BME280;6045;42.682;23.294;2023-07-20T01:16:34;94324.69;;;24.57;64.19
11971;BME280;6045;42.682;23.294;2023-07-20T01:19:00;94323.56;;;24.58;64.58
11971;BME280;6045;42.682;23.294;2023-07-20T01:21:32;94315.69;;;24.56;64.88
11971;BME280;6045;42.682;23.294;2023-07-20T01:27:26;94324.06;;;24.34;65.90
11971;BME280;6045;42.682;23.294;2023-07-20T01:30:13;94328.25;;;24.31;65.99
11971;BME280;6045;42.682;23.294;2023-07-20T01:32:44;94336.59;;;24.26;66.30
11971;BME280;6045;42.682;23.294;2023-07-20T01:35:14;94327.63;;;24.17;65.90
11971;BME280;6045;42.682;23.294;2023-07-20T01:37:43;94335.75;;;24.00;66.65
11971;BME280;6045;42.682;23.294;2023-07-20T01:40:13;94327.56;;;24.00;66.70
11971;BME280;6045;42.682;23.294;2023-07-20T01:42:44;94326.28;;;23.98;66.69
11971;BME280;6045;42.682;23.294;2023-07-20T01:45:11;94324.22;;;24.03;66.35
11971;BME280;6045;42.682;23.294;2023-07-20T01:47:38;94320.38;;;24.04;66.53
11971;BME280;6045;42.682;23.294;2023-07-20T01:50:07;94332.28;;;24.08;66.80
11971;BME280;6045;42.682;23.294;2023-07-20T01:52:34;94319.88;;;24.02;67.03
11971;BME280;6045;42.682;23.294;2023-07-20T01:55:01;94320.38;;;24.04;66.79
11971;BME280;6045;42.682;23.294;2023-07-20T01:57:29;94328.38;;;24.01;66.71
11971;BME280;6045;42.682;23.294;2023-07-20T01:59:56;94324.22;;;24.03;66.67
11971;BME280;6045;42.682;23.294;2023-07-20T02:02:26;94324.69;;;24.05;66.86
11971;BME280;6045;42.682;23.294;2023-07-20T02:04:55;94318.41;;;24.05;66.87
11971;BME280;6045;42.682;23.294;2023-07-20T02:07:24;94317.78;;;23.99;67.05
11971;BME280;6045;42.682;23.294;2023-07-20T02:09:51;94310.38;;;23.91;66.42
11971;BME280;6045;42.682;23.294;2023-07-20T02:12:18;94314.72;;;23.92;66.35
11971;BME280;6045;42.682;23.294;2023-07-20T02:14:45;94308.13;;;23.93;66.68
11971;BME280;6045;42.682;23.294;2023-07-20T02:17:12;94308.47;;;23.92;67.27
11971;BME280;6045;42.682;23.294;2023-07-20T02:19:40;94319.88;;;23.85;67.57
11971;BME280;6045;42.682;23.294;2023-07-20T02:22:07;94318.09;;;23.89;67.75
11971;BME280;6045;42.682;23.294;2023-07-20T02:24:35;94315.69;;;23.88;67.39
11971;BME280;6045;42.682;23.294;2023-07-20T02:27:02;94313.91;;;23.92;67.17
11971;BME280;6045;42.682;23.294;2023-07-20T02:29:29;94322.44;;;23.90;67.23
11971;BME280;6045;42.682;23.294;2023-07-20T02:31:55;94314.56;;;23.89;67.20
11971;BME280;6045;42.682;23.294;2023-07-20T02:34:22;94307.97;;;23.90;67.15
11971;BME280;6045;42.682;23.294;2023-07-20T02:36:49;94310.53;;;23.86;67.84
11971;BME280;6045;42.682;23.294;2023-07-20T02:39:16;94307.00;;;23.77;67.84
11971;BME280;6045;42.682;23.294;2023-07-20T02:41:44;94300.44;;;23.78;67.92
11971;BME280;6045;42.682;23.294;2023-07-20T02:44:11;94296.56;;;23.79;67.77
11971;BME280;6045;42.682;23.294;2023-07-20T02:46:38;94292.72;;;23.80;67.72
11971;BME280;6045;42.682;23.294;2023-07-20T02:49:04;94289.66;;;23.81;67.43
11971;BME280;6045;42.682;23.294;2023-07-20T02:51:31;94286.63;;;23.83;67.73
11971;BME280;6045;42.682;23.294;2023-07-20T02:53:58;94289.66;;;23.81;67.12
11971;BME280;6045;42.682;23.294;2023-07-20T02:56:25;94286.94;;;23.73;67.49
11971;BME280;6045;42.682;23.294;2023-07-20T02:58:53;94292.53;;;23.76;67.26
11971;BME280;6045;42.682;23.294;2023-07-20T03:01:20;94291.91;;;23.79;67.36
11971;BME280;6045;42.682;23.294;2023-07-20T03:03:49;94287.25;;;23.80;67.56
11971;BME280;6045;42.682;23.294;2023-07-20T03:06:16;94286.78;;;23.78;68.27
11971;BME280;6045;42.682;23.294;2023-07-20T03:08:43;94292.22;;;23.69;68.07
11971;BME280;6045;42.682;23.294;2023-07-20T03:11:13;94286.59;;;23.66;68.41
11971;BME280;6045;42.682;23.294;2023-07-20T03:13:40;94289.16;;;23.62;68.58
11971;BME280;6045;42.682;23.294;2023-07-20T03:16:09;94295.91;;;23.65;68.59
11971;BME280;6045;42.682;23.294;2023-07-20T03:18:37;94299.13;;;23.67;68.59
11971;BME280;6045;42.682;23.294;2023-07-20T03:21:04;94300.25;;;23.66;68.44
11971;BME280;6045;42.682;23.294;2023-07-20T03:23:31;94301.34;;;23.65;68.65
11971;BME280;6045;42.682;23.294;2023-07-20T03:25:58;94310.06;;;23.67;68.53
11971;BME280;6045;42.682;23.294;2023-07-20T03:28:25;94309.41;;;23.70;68.66
11971;BME280;6045;42.682;23.294;2023-07-20T03:30:53;94314.22;;;23.73;68.14
11971;BME280;6045;42.682;23.294;2023-07-20T03:33:22;94313.41;;;23.72;68.60
11971;BME280;6045;42.682;23.294;2023-07-20T03:35:48;94299.47;;;23.74;68.19
11971;BME280;6045;42.682;23.294;2023-07-20T03:38:18;94303.63;;;23.71;68.28
11971;BME280;6045;42.682;23.294;2023-07-20T03:40:52;94309.41;;;23.61;68.66
11971;BME280;6045;42.682;23.294;2023-07-20T03:43:23;94305.84;;;23.61;69.03
11971;BME280;6045;42.682;23.294;2023-07-20T03:45:50;94311.66;;;23.68;68.68
11971;BME280;6045;42.682;23.294;2023-07-20T03:48:19;94309.88;;;23.72;69.03
11971;BME280;6045;42.682;23.294;2023-07-20T03:50:50;94318.72;;;23.77;68.84
11971;BME280;6045;42.682;23.294;2023-07-20T03:53:17;94311.16;;;23.74;69.11
11971;BME280;6045;42.682;23.294;2023-07-20T03:55:45;94310.69;;;23.64;68.84
11971;BME280;6045;42.682;23.294;2023-07-20T03:58:12;94314.84;;;23.61;68.48
11971;BME280;6045;42.682;23.294;2023-07-20T04:00:39;94321.59;;;23.64;69.12
11971;BME280;6045;42.682;23.294;2023-07-20T04:03:06;94319.34;;;23.74;68.78
11971;BME280;6045;42.682;23.294;2023-07-20T04:05:32;94315.84;;;23.83;68.79
11971;BME280;6045;42.682;23.294;2023-07-20T04:08:01;94302.69;;;23.76;66.55
11971;BME280;6045;42.682;23.294;2023-07-20T04:10:27;94305.06;;;23.86;66.20
11971;BME280;6045;42.682;23.294;2023-07-20T04:12:55;94312.00;;;24.01;67.76
11971;BME280;6045;42.682;23.294;2023-07-20T04:15:21;94307.53;;;24.13;68.60
11971;BME280;6045;42.682;23.294;2023-07-20T04:17:48;94297.06;;;24.24;69.06
11971;BME280;6045;42.682;23.294;2023-07-20T04:20:15;94299.81;;;24.32;68.11
11971;BME280;6045;42.682;23.294;2023-07-20T04:22:43;94304.91;;;24.42;67.54
11971;BME280;6045;42.682;23.294;2023-07-20T04:25:11;94302.03;;;24.47;67.81
11971;BME280;6045;42.682;23.294;2023-07-20T04:27:38;94296.22;;;24.58;66.16
11971;BME280;6045;42.682;23.294;2023-07-20T04:30:07;94298.63;;;24.68;65.53
11971;BME280;6045;42.682;23.294;2023-07-20T04:32:34;94294.28;;;24.67;63.56
11971;BME280;6045;42.682;23.294;2023-07-20T04:35:01;94299.56;;;24.72;63.43
11971;BME280;6045;42.682;23.294;2023-07-20T04:37:28;94289.81;;;24.54;62.81
11971;BME280;6045;42.682;23.294;2023-07-20T04:39:55;94294.56;;;24.74;63.34
11971;BME280;6045;42.682;23.294;2023-07-20T04:42:23;94283.03;;;24.60;62.04
11971;BME280;6045;42.682;23.294;2023-07-20T04:44:49;94293.63;;;24.70;62.49
11971;BME280;6045;42.682;23.294;2023-07-20T04:47:16;94299.91;;;24.70;61.94
11971;BME280;6045;42.682;23.294;2023-07-20T04:49:43;94288.19;;;24.61;61.29
11971;BME280;6045;42.682;23.294;2023-07-20T04:52:10;94291.53;;;24.67;60.93
11971;BME280;6045;42.682;23.294;2023-07-20T04:54:37;94285.78;;;24.60;61.11
11971;BME280;6045;42.682;23.294;2023-07-20T04:57:11;94291.88;;;24.82;60.95
11971;BME280;6045;42.682;23.294;2023-07-20T04:59:39;94293.09;;;24.93;60.43
11971;BME280;6045;42.682;23.294;2023-07-20T05:02:06;94287.13;;;25.00;60.11
11971;BME280;6045;42.682;23.294;2023-07-20T05:04:33;94286.25;;;25.17;59.78
11971;BME280;6045;42.682;23.294;2023-07-20T05:07:00;94287.63;;;25.31;59.49
11971;BME280;6045;42.682;23.294;2023-07-20T05:09:26;94291.44;;;25.47;59.01
11971;BME280;6045;42.682;23.294;2023-07-20T05:11:56;94287.97;;;25.59;58.95
11971;BME280;6045;42.682;23.294;2023-07-20T05:14:23;94293.06;;;25.48;59.05
11971;BME280;6045;42.682;23.294;2023-07-20T05:16:51;94298.38;;;25.45;60.20
11971;BME280;6045;42.682;23.294;2023-07-20T05:19:18;94297.00;;;25.59;59.58
11971;BME280;6045;42.682;23.294;2023-07-20T05:21:45;94298.41;;;25.65;59.08
11971;BME280;6045;42.682;23.294;2023-07-20T05:24:11;94296.34;;;25.62;59.89
11971;BME280;6045;42.682;23.294;2023-07-20T05:26:38;94293.75;;;25.66;60.88
11971;BME280;6045;42.682;23.294;2023-07-20T05:29:05;94308.31;;;25.78;58.62
11971;BME280;6045;42.682;23.294;2023-07-20T05:31:31;94304.03;;;25.90;58.16
11971;BME280;6045;42.682;23.294;2023-07-20T05:33:59;94309.91;;;25.79;59.80
11971;BME280;6045;42.682;23.294;2023-07-20T05:36:26;94303.25;;;25.89;59.17
11971;BME280;6045;42.682;23.294;2023-07-20T05:38:53;94308.78;;;26.01;57.89
11971;BME280;6045;42.682;23.294;2023-07-20T05:41:20;94313.00;;;25.99;59.01
11971;BME280;6045;42.682;23.294;2023-07-20T05:43:48;94322.84;;;26.00;58.62
11971;BME280;6045;42.682;23.294;2023-07-20T05:46:14;94325.53;;;26.29;57.85
11971;BME280;6045;42.682;23.294;2023-07-20T05:48:41;94321.78;;;26.54;57.37
11971;BME280;6045;42.682;23.294;2023-07-20T05:51:09;94320.88;;;26.62;57.67
11971;BME280;6045;42.682;23.294;2023-07-20T05:53:36;94334.16;;;26.72;57.58
11971;BME280;6045;42.682;23.294;2023-07-20T05:56:03;94328.50;;;26.77;56.93
11971;BME280;6045;42.682;23.294;2023-07-20T05:58:30;94316.63;;;26.85;56.62
11971;BME280;6045;42.682;23.294;2023-07-20T06:00:57;94310.50;;;27.00;56.77
11971;BME280;6045;42.682;23.294;2023-07-20T06:03:24;94313.50;;;27.20;55.44
11971;BME280;6045;42.682;23.294;2023-07-20T06:05:50;94318.78;;;27.25;54.67
11971;BME280;6045;42.682;23.294;2023-07-20T06:08:21;94312.59;;;27.16;53.77
11971;BME280;6045;42.682;23.294;2023-07-20T06:10:50;94317.69;;;26.93;54.26
11971;BME280;6045;42.682;23.294;2023-07-20T06:13:17;94317.31;;;26.82;55.19
11971;BME280;6045;42.682;23.294;2023-07-20T06:15:44;94317.91;;;26.88;55.66
11971;BME280;6045;42.682;23.294;2023-07-20T06:18:11;94312.78;;;26.98;55.74
11971;BME280;6045;42.682;23.294;2023-07-20T06:20:38;94308.00;;;27.07;56.22
11971;BME280;6045;42.682;23.294;2023-07-20T06:23:04;94297.28;;;27.27;55.52
11971;BME280;6045;42.682;23.294;2023-07-20T06:25:33;94290.81;;;27.43;55.67
11971;BME280;6045;42.682;23.294;2023-07-20T06:27:59;94291.59;;;27.44;53.88
11971;BME280;6045;42.682;23.294;2023-07-20T06:30:26;94285.84;;;27.61;54.46
11971;BME280;6045;42.682;23.294;2023-07-20T06:32:56;94288.34;;;27.90;54.23
11971;BME280;6045;42.682;23.294;2023-07-20T06:35:23;94288.03;;;28.31;53.01
11971;BME280;6045;42.682;23.294;2023-07-20T06:37:50;94291.34;;;28.65;50.25
11971;BME280;6045;42.682;23.294;2023-07-20T06:40:16;94287.44;;;28.93;49.14
11971;BME280;6045;42.682;23.294;2023-07-20T06:42:45;94281.19;;;29.24;48.70
11971;BME280;6045;42.682;23.294;2023-07-20T06:45:12;94291.56;;;29.31;47.58
11971;BME280;6045;42.682;23.294;2023-07-20T06:47:39;94296.44;;;29.37;48.93
11971;BME280;6045;42.682;23.294;2023-07-20T06:50:09;94288.53;;;29.51;49.53
11971;BME280;6045;42.682;23.294;2023-07-20T06:52:36;94287.91;;;29.73;48.66
11971;BME280;6045;42.682;23.294;2023-07-20T06:55:04;94291.50;;;30.09;47.45
11971;BME280;6045;42.682;23.294;2023-07-20T06:57:31;94305.22;;;30.40;46.64
11971;BME280;6045;42.682;23.294;2023-07-20T07:00:02;94311.06;;;30.58;45.86
11971;BME280;6045;42.682;23.294;2023-07-20T07:02:29;94318.63;;;30.80;46.58
11971;BME280;6045;42.682;23.294;2023-07-20T07:04:56;94329.41;;;31.04;47.08
11971;BME280;6045;42.682;23.294;2023-07-20T07:07:23;94325.31;;;30.98;46.88
11971;BME280;6045;42.682;23.294;2023-07-20T07:09:49;94325.59;;;30.74;46.22
11971;BME280;6045;42.682;23.294;2023-07-20T07:12:16;94334.91;;;30.47;46.77
11971;BME280;6045;42.682;23.294;2023-07-20T07:14:43;94333.06;;;30.35;48.41
11971;BME280;6045;42.682;23.294;2023-07-20T07:17:11;94351.59;;;30.19;49.07
11971;BME280;6045;42.682;23.294;2023-07-20T07:19:38;94356.97;;;30.12;49.25
11971;BME280;6045;42.682;23.294;2023-07-20T07:22:06;94367.41;;;30.37;48.68
11971;BME280;6045;42.682;23.294;2023-07-20T07:24:32;94368.31;;;30.61;49.25
11971;BME280;6045;42.682;23.294;2023-07-20T07:27:00;94377.38;;;30.96;48.37
11971;BME280;6045;42.682;23.294;2023-07-20T07:29:27;94376.13;;;31.13;48.18
11971;BME280;6045;42.682;23.294;2023-07-20T07:31:54;94366.34;;;31.19;47.59
11971;BME280;6045;42.682;23.294;2023-07-20T07:34:22;94356.75;;;31.32;46.32
11971;BME280;6045;42.682;23.294;2023-07-20T07:36:49;94349.72;;;31.57;46.45
11971;BME280;6045;42.682;23.294;2023-07-20T07:39:16;94350.38;;;31.73;45.05
11971;BME280;6045;42.682;23.294;2023-07-20T07:41:43;94347.44;;;31.85;45.39
11971;BME280;6045;42.682;23.294;2023-07-20T07:44:09;94352.84;;;31.78;45.39
11971;BME280;6045;42.682;23.294;2023-07-20T07:46:37;94355.00;;;31.88;45.31
11971;BME280;6045;42.682;23.294;2023-07-20T07:49:03;94337.19;;;31.86;44.46
11971;BME280;6045;42.682;23.294;2023-07-20T07:51:31;94310.09;;;31.72;44.82
11971;BME280;6045;42.682;23.294;2023-07-20T07:53:58;94308.84;;;31.92;44.24
11971;BME280;6045;42.682;23.294;2023-07-20T07:56:25;94323.66;;;32.03;44.80
11971;BME280;6045;42.682;23.294;2023-07-20T07:58:52;94329.66;;;32.09;45.55
11971;BME280;6045;42.682;23.294;2023-07-20T08:01:19;94308.56;;;32.27;43.50
11971;BME280;6045;42.682;23.294;2023-07-20T08:03:46;94326.84;;;32.31;44.33
11971;BME280;6045;42.682;23.294;2023-07-20T08:06:13;94335.66;;;32.40;43.64
11971;BME280;6045;42.682;23.294;2023-07-20T08:08:41;94358.66;;;32.44;44.09
11971;BME280;6045;42.682;23.294;2023-07-20T08:11:08;94369.13;;;32.55;43.16
11971;BME280;6045;42.682;23.294;2023-07-20T08:13:36;94376.31;;;32.36;43.30
11971;BME280;6045;42.682;23.294;2023-07-20T08:16:03;94363.97;;;32.30;44.40
11971;BME280;6045;42.682;23.294;2023-07-20T08:18:30;94355.28;;;32.32;44.18
11971;BME280;6045;42.682;23.294;2023-07-20T08:20:57;94384.28;;;32.15;43.91
11971;BME280;6045;42.682;23.294;2023-07-20T08:23:24;94382.69;;;31.92;44.79
11971;BME280;6045;42.682;23.294;2023-07-20T08:25:54;94375.78;;;31.56;43.96
11971;BME280;6045;42.682;23.294;2023-07-20T08:28:21;94368.34;;;31.60;44.00
11971;BME280;6045;42.682;23.294;2023-07-20T08:30:48;94360.41;;;31.81;43.42
11971;BME280;6045;42.682;23.294;2023-07-20T08:33:16;94377.53;;;31.90;43.38
11971;BME280;6045;42.682;23.294;2023-07-20T08:35:45;94382.34;;;31.93;42.44
11971;BME280;6045;42.682;23.294;2023-07-20T08:38:12;94377.81;;;32.04;42.51
11971;BME280;6045;42.682;23.294;2023-07-20T08:40:40;94372.56;;;32.22;42.75
11971;BME280;6045;42.682;23.294;2023-07-20T08:43:10;94373.66;;;31.95;40.08
11971;BME280;6045;42.682;23.294;2023-07-20T08:45:39;94366.19;;;31.50;40.33
11971;BME280;6045;42.682;23.294;2023-07-20T08:48:07;94379.31;;;31.56;41.82
11971;BME280;6045;42.682;23.294;2023-07-20T08:50:35;94376.63;;;31.18;41.04
11971;BME280;6045;42.682;23.294;2023-07-20T08:53:02;94376.47;;;31.30;43.17
11971;BME280;6045;42.682;23.294;2023-07-20T08:55:30;94373.09;;;31.82;42.85
11971;BME280;6045;42.682;23.294;2023-07-20T08:57:58;94363.25;;;32.33;41.73
11971;BME280;6045;42.682;23.294;2023-07-20T09:00:26;94359.63;;;32.56;39.73
11971;BME280;6045;42.682;23.294;2023-07-20T09:02:55;94349.72;;;32.55;40.70
11971;BME280;6045;42.682;23.294;2023-07-20T09:05:24;94353.75;;;32.61;40.53
11971;BME280;6045;42.682;23.294;2023-07-20T09:07:51;94349.78;;;32.88;39.60
11971;BME280;6045;42.682;23.294;2023-07-20T09:10:20;94359.84;;;33.03;40.14
11971;BME280;6045;42.682;23.294;2023-07-20T09:12:47;94347.75;;;32.85;37.48
11971;BME280;6045;42.682;23.294;2023-07-20T09:15:14;94358.03;;;32.84;40.18
11971;BME280;6045;42.682;23.294;2023-07-20T09:17:47;94342.97;;;33.15;39.56
11971;BME280;6045;42.682;23.294;2023-07-20T09:20:15;94341.53;;;33.28;38.71
11971;BME280;6045;42.682;23.294;2023-07-20T09:22:42;94334.56;;;33.41;37.11
11971;BME280;6045;42.682;23.294;2023-07-20T09:25:11;94339.47;;;33.18;38.17
11971;BME280;6045;42.682;23.294;2023-07-20T09:27:39;94327.31;;;33.30;36.63
11971;BME280;6045;42.682;23.294;2023-07-20T09:30:07;94335.06;;;33.14;36.27
11971;BME280;6045;42.682;23.294;2023-07-20T09:32:39;94335.84;;;33.14;34.92
11971;BME280;6045;42.682;23.294;2023-07-20T09:35:12;94332.78;;;32.93;35.71
11971;BME280;6045;42.682;23.294;2023-07-20T09:37:40;94333.06;;;32.81;36.09
11971;BME280;6045;42.682;23.294;2023-07-20T09:40:07;94335.22;;;32.98;36.78
11971;BME280;6045;42.682;23.294;2023-07-20T09:42:36;94327.44;;;32.74;36.57
11971;BME280;6045;42.682;23.294;2023-07-20T09:45:07;94319.56;;;32.76;36.24
11971;BME280;6045;42.682;23.294;2023-07-20T09:47:36;94324.75;;;32.51;37.48
11971;BME280;6045;42.682;23.294;2023-07-20T09:50:04;94328.28;;;32.78;37.40
11971;BME280;6045;42.682;23.294;2023-07-20T09:52:37;94312.50;;;32.82;36.22
11971;BME280;6045;42.682;23.294;2023-07-20T09:55:08;94295.00;;;33.07;35.56
11971;BME280;6045;42.682;23.294;2023-07-20T09:57:36;94291.41;;;33.03;35.13
11971;BME280;6045;42.682;23.294;2023-07-20T10:00:05;94283.22;;;32.81;35.94
11971;BME280;6045;42.682;23.294;2023-07-20T10:02:41;94298.88;;;32.70;35.57
11971;BME280;6045;42.682;23.294;2023-07-20T10:05:11;94300.09;;;32.42;36.17
11971;BME280;6045;42.682;23.294;2023-07-20T10:07:43;94298.03;;;31.84;35.05
11971;BME280;6045;42.682;23.294;2023-07-20T10:10:11;94302.41;;;31.39;36.96
11971;BME280;6045;42.682;23.294;2023-07-20T10:12:41;94308.28;;;31.15;37.75
11971;BME280;6045;42.682;23.294;2023-07-20T10:15:11;94303.50;;;31.12;39.55
11971;BME280;6045;42.682;23.294;2023-07-20T10:17:46;94314.06;;;31.06;37.57
11971;BME280;6045;42.682;23.294;2023-07-20T10:20:16;94311.22;;;31.03;37.13
11971;BME280;6045;42.682;23.294;2023-07-20T10:22:47;94320.47;;;30.91;37.50
11971;BME280;6045;42.682;23.294;2023-07-20T10:25:15;94311.66;;;30.86;38.00
11971;BME280;6045;42.682;23.294;2023-07-20T10:27:43;94310.94;;;30.89;36.71
11971;BME280;6045;42.682;23.294;2023-07-20T10:30:10;94309.31;;;31.07;38.06
11971;BME280;6045;42.682;23.294;2023-07-20T10:32:38;94279.63;;;31.00;37.16
11971;BME280;6045;42.682;23.294;2023-07-20T10:35:12;94284.66;;;31.18;39.24
11971;BME280;6045;42.682;23.294;2023-07-20T10:37:51;94295.72;;;31.18;36.89
11971;BME280;6045;42.682;23.294;2023-07-20T10:40:29;94303.31;;;31.01;37.52
11971;BME280;6045;42.682;23.294;2023-07-20T10:43:01;94287.91;;;31.00;39.01
11971;BME280;6045;42.682;23.294;2023-07-20T10:45:42;94247.66;;;31.22;39.15
11971;BME280;6045;42.682;23.294;2023-07-20T10:48:17;94197.97;;;31.48;37.98
11971;BME280;6045;42.682;23.294;2023-07-20T10:50:45;94237.31;;;31.64;37.39
11971;BME280;6045;42.682;23.294;2023-07-20T10:53:17;94267.44;;;31.73;37.12
11971;BME280;6045;42.682;23.294;2023-07-20T10:55:44;94261.19;;;31.76;36.70
11971;BME280;6045;42.682;23.294;2023-07-20T10:58:12;94233.75;;;31.90;37.54
11971;BME280;6045;42.682;23.294;2023-07-20T11:00:57;94237.25;;;32.13;38.69
11971;BME280;6045;42.682;23.294;2023-07-20T11:03:29;94227.88;;;32.21;38.57
11971;BME280;6045;42.682;23.294;2023-07-20T11:05:57;94228.69;;;32.22;38.79
11971;BME280;6045;42.682;23.294;2023-07-20T11:08:41;94223.16;;;32.52;40.53
11971;BME280;6045;42.682;23.294;2023-07-20T11:11:21;94214.75;;;32.78;39.97
11971;BME280;6045;42.682;23.294;2023-07-20T11:13:58;94220.66;;;33.17;38.23
11971;BME280;6045;42.682;23.294;2023-07-20T11:16:35;94223.22;;;33.36;39.44
11971;BME280;6045;42.682;23.294;2023-07-20T11:19:02;94219.22;;;33.77;38.37
11971;BME280;6045;42.682;23.294;2023-07-20T11:21:36;94213.13;;;34.15;35.82
11971;BME280;6045;42.682;23.294;2023-07-20T11:24:06;94215.56;;;34.24;37.15
11971;BME280;6045;42.682;23.294;2023-07-20T11:26:44;94212.81;;;34.31;36.22
11971;BME280;6045;42.682;23.294;2023-07-20T11:29:12;94203.81;;;34.55;35.46
11971;BME280;6045;42.682;23.294;2023-07-20T11:31:40;94205.47;;;34.81;34.72
11971;BME280;6045;42.682;23.294;2023-07-20T11:34:12;94199.94;;;34.91;36.23
11971;BME280;6045;42.682;23.294;2023-07-20T11:36:40;94201.59;;;35.07;35.39
11971;BME280;6045;42.682;23.294;2023-07-20T11:39:10;94198.44;;;35.19;35.24
11971;BME280;6045;42.682;23.294;2023-07-20T11:41:38;94190.91;;;35.51;33.20
11971;BME280;6045;42.682;23.294;2023-07-20T11:44:05;94184.53;;;35.68;32.99
11971;BME280;6045;42.682;23.294;2023-07-20T11:46:33;94183.34;;;35.69;34.51
11971;BME280;6045;42.682;23.294;2023-07-20T11:49:00;94173.78;;;35.84;35.08
11971;BME280;6045;42.682;23.294;2023-07-20T11:51:28;94186.13;;;35.72;34.25
11971;BME280;6045;42.682;23.294;2023-07-20T11:53:56;94178.16;;;35.78;33.96
11971;BME280;6045;42.682;23.294;2023-07-20T11:56:25;94180.94;;;35.78;33.58
11971;BME280;6045;42.682;23.294;2023-07-20T11:58:55;94171.81;;;35.39;33.82
11971;BME280;6045;42.682;23.294;2023-07-20T12:01:24;94172.22;;;35.27;34.52
11971;BME280;6045;42.682;23.294;2023-07-20T12:03:54;94170.22;;;35.13;33.57
11971;BME280;6045;42.682;23.294;2023-07-20T12:06:23;94163.47;;;35.11;34.21
11971;BME280;6045;42.682;23.294;2023-07-20T12:08:50;94160.28;;;35.33;33.18
11971;BME280;6045;42.682;23.294;2023-07-20T12:11:34;94154.34;;;35.31;34.45
11971;BME280;6045;42.682;23.294;2023-07-20T12:14:08;94159.50;;;35.43;34.89
11971;BME280;6045;42.682;23.294;2023-07-20T12:16:36;94156.75;;;35.54;33.41
11971;BME280;6045;42.682;23.294;2023-07-20T12:19:04;94144.81;;;35.60;32.47
11971;BME280;6045;42.682;23.294;2023-07-20T12:21:34;94145.19;;;35.80;32.08
11971;BME280;6045;42.682;23.294;2023-07-20T12:24:02;94143.97;;;35.74;32.37
11971;BME280;6045;42.682;23.294;2023-07-20T12:26:32;94149.13;;;35.76;31.72
11971;BME280;6045;42.682;23.294;2023-07-20T12:28:59;94149.94;;;35.48;30.34
11971;BME280;6045;42.682;23.294;2023-07-20T12:31:27;94140.03;;;35.43;31.33
11971;BME280;6045;42.682;23.294;2023-07-20T12:33:57;94137.28;;;35.26;30.14
11971;BME280;6045;42.682;23.294;2023-07-20T12:36:24;94136.47;;;35.22;29.69
11971;BME280;6045;42.682;23.294;2023-07-20T12:38:52;94137.63;;;34.99;30.44
11971;BME280;6045;42.682;23.294;2023-07-20T12:41:19;94138.81;;;34.88;28.52
11971;BME280;6045;42.682;23.294;2023-07-20T12:43:47;94139.97;;;34.62;28.05
11971;BME280;6045;42.682;23.294;2023-07-20T12:46:15;94130.75;;;34.40;27.03
11971;BME280;6045;42.682;23.294;2023-07-20T12:48:42;94125.94;;;34.20;29.05
11971;BME280;6045;42.682;23.294;2023-07-20T12:51:09;94135.47;;;34.29;30.16
11971;BME280;6045;42.682;23.294;2023-07-20T12:53:37;94120.81;;;34.29;28.32
11971;BME280;6045;42.682;23.294;2023-07-20T12:56:05;94133.50;;;34.33;30.16
11971;BME280;6045;42.682;23.294;2023-07-20T12:58:32;94126.75;;;34.31;30.22
11971;BME280;6045;42.682;23.294;2023-07-20T13:01:00;94129.19;;;34.43;32.21
11971;BME280;6045;42.682;23.294;2023-07-20T13:03:26;94118.13;;;34.57;31.33
11971;BME280;6045;42.682;23.294;2023-07-20T13:05:53;94121.72;;;34.58;32.34
11971;BME280;6045;42.682;23.294;2023-07-20T13:08:20;94121.31;;;34.66;32.60
11971;BME280;6045;42.682;23.294;2023-07-20T13:10:50;94117.34;;;34.64;32.38